New Lancaster, Indiana
Current Conditions -  °F | °C
As of 9:55 PM on Friday 21 Nov 2014 (Local Time) from KMZZ Reporting Station
Clear Clear  
Wind Chill: 14°   Ceiling: Unl
Heat Index: 23°   Visibility: 10mi
Dew Point: 13°   Wind: 8mph
Humidity: 64%   Direction: 170°S
Pressure: 30.36"   Gusts: NA
Location:  40.3067°N, 85.834°W
Report Text: KMZZ 220255Z AUTO 17007KT 10SM CLR M05/M11 A3036 RMK AO2 T10501108
Loading
Personal Weather Stations






























Interactive Weather Map New forecast layout! Learn more

10-Day Weather Forecast

Advertisements
Track Severe Weather on mobile